createdAt,value
2023-02-27T00:01:34.028Z,-1.50
2023-02-27T00:04:02.748Z,-1.50
2023-02-27T00:06:32.058Z,-1.50
2023-02-27T00:09:01.662Z,-1.60
2023-02-27T00:11:30.988Z,-1.60
2023-02-27T00:14:00.855Z,-1.60
2023-02-27T00:16:30.297Z,-1.60
2023-02-27T00:19:01.301Z,-1.60
2023-02-27T00:21:30.785Z,-1.70
2023-02-27T00:24:00.154Z,-1.70
2023-02-27T00:26:29.501Z,-1.70
2023-02-27T00:28:58.867Z,-1.70
2023-02-27T00:31:29.000Z,-1.70
2023-02-27T00:33:57.780Z,-1.70
2023-02-27T00:36:27.336Z,-1.80
2023-02-27T00:38:56.724Z,-1.80
2023-02-27T00:41:27.867Z,-1.80
2023-02-27T00:43:57.351Z,-1.80
2023-02-27T00:46:26.792Z,-1.80
2023-02-27T00:48:56.652Z,-1.90
2023-02-27T00:51:27.352Z,-1.90
2023-02-27T00:53:57.436Z,-1.90
2023-02-27T00:56:26.929Z,-1.90
2023-02-27T00:58:56.344Z,-1.90
2023-02-27T01:01:26.079Z,-1.90
2023-02-27T01:03:57.401Z,-2.00
2023-02-27T01:06:26.850Z,-1.90
2023-02-27T01:08:56.771Z,-2.00
2023-02-27T01:11:27.151Z,-1.90
2023-02-27T01:13:57.032Z,-2.00
2023-02-27T01:16:26.711Z,-2.00
2023-02-27T01:18:56.339Z,-2.00
2023-02-27T01:21:26.236Z,-2.00
2023-02-27T01:23:55.069Z,-2.00
2023-02-27T01:26:24.301Z,-2.00
2023-02-27T01:28:55.321Z,-2.00
2023-02-27T01:31:25.190Z,-2.00
2023-02-27T01:33:56.514Z,-1.90
2023-02-27T01:36:25.886Z,-1.90
2023-02-27T01:38:55.223Z,-1.90
2023-02-27T01:41:25.697Z,-1.90
2023-02-27T01:43:59.198Z,-1.90
2023-02-27T01:46:29.948Z,-1.90
2023-02-27T01:49:08.736Z,-1.90
2023-02-27T01:51:53.150Z,-1.90
2023-02-27T01:54:25.843Z,-1.90
2023-02-27T01:56:55.396Z,-1.90
2023-02-27T01:59:25.502Z,-1.90
2023-02-27T02:01:55.089Z,-1.90
2023-02-27T02:04:26.989Z,-1.90
2023-02-27T02:07:04.837Z,-1.90
2023-02-27T02:09:37.210Z,-1.90
2023-02-27T02:12:07.711Z,-1.90
2023-02-27T02:14:37.063Z,-1.90
2023-02-27T02:17:12.289Z,-1.90
2023-02-27T02:20:02.789Z,-1.90
2023-02-27T02:22:47.212Z,-1.90
2023-02-27T02:25:28.413Z,-1.90
2023-02-27T02:28:17.497Z,-2.00
2023-02-27T02:30:58.734Z,-2.00
2023-02-27T02:33:57.098Z,-2.00
2023-02-27T02:37:03.944Z,-2.00
2023-02-27T02:39:45.051Z,-2.00
2023-02-27T02:42:38.145Z,-2.00
2023-02-27T02:45:16.444Z,-2.00
2023-02-27T02:47:48.836Z,-2.00
2023-02-27T02:50:29.313Z,-2.00
2023-02-27T02:53:18.130Z,-2.00
2023-02-27T02:55:53.394Z,-2.00
2023-02-27T02:58:49.401Z,-2.00
2023-02-27T03:01:22.385Z,-2.00
2023-02-27T03:03:59.151Z,-2.10
2023-02-27T03:06:34.999Z,-2.00
2023-02-27T03:09:07.868Z,-2.10
2023-02-27T03:11:40.549Z,-2.10
2023-02-27T03:14:15.828Z,-2.10
2023-02-27T03:16:49.889Z,-2.10
2023-02-27T03:19:23.937Z,-2.10
2023-02-27T03:22:05.333Z,-2.10
2023-02-27T03:24:49.607Z,-2.10
2023-02-27T03:27:19.994Z,-2.20
2023-02-27T03:30:08.134Z,-2.20
2023-02-27T03:32:43.620Z,-2.20
2023-02-27T03:35:14.399Z,-2.20
2023-02-27T03:37:52.865Z,-2.30
2023-02-27T03:40:46.304Z,-2.30
2023-02-27T03:43:35.380Z,-2.30
2023-02-27T03:46:10.628Z,-2.30
2023-02-27T03:48:45.027Z,-2.30
2023-02-27T03:51:20.385Z,-2.30
2023-02-27T03:54:02.136Z,-2.30
2023-02-27T03:56:34.646Z,-2.40
2023-02-27T03:59:04.878Z,-2.40
2023-02-27T04:01:35.275Z,-2.40
2023-02-27T04:04:07.648Z,-2.40
2023-02-27T04:06:58.664Z,-2.40
2023-02-27T04:09:45.829Z,-2.40
2023-02-27T04:12:33.472Z,-2.40
2023-02-27T04:15:08.666Z,-2.40
2023-02-27T04:17:50.269Z,-2.50
2023-02-27T04:20:22.649Z,-2.50
2023-02-27T04:22:55.094Z,-2.50
2023-02-27T04:25:30.076Z,-2.50
2023-02-27T04:28:15.652Z,-2.50
2023-02-27T04:30:53.820Z,-2.50
2023-02-27T04:33:47.094Z,-2.50
2023-02-27T04:36:36.195Z,-2.50
2023-02-27T04:39:14.500Z,-2.50
2023-02-27T04:41:49.556Z,-2.50
2023-02-27T04:44:21.439Z,-2.60
2023-02-27T04:46:52.710Z,-2.50
2023-02-27T04:49:33.989Z,-2.60
2023-02-27T04:52:10.350Z,-2.60
2023-02-27T04:54:48.303Z,-2.60
2023-02-27T04:57:20.681Z,-2.60
2023-02-27T04:59:53.468Z,-2.60
2023-02-27T05:02:32.648Z,-2.60
2023-02-27T05:05:05.087Z,-2.60
2023-02-27T05:07:37.492Z,-2.70
2023-02-27T05:10:09.996Z,-2.70
2023-02-27T05:12:54.162Z,-2.70
2023-02-27T05:15:29.580Z,-2.70
2023-02-27T05:18:04.573Z,-2.70
2023-02-27T05:20:57.000Z,-2.70
2023-02-27T05:23:56.899Z,-2.70
2023-02-27T05:26:40.681Z,-2.80
2023-02-27T05:29:13.104Z,-2.80
2023-02-27T05:31:57.342Z,-2.80
2023-02-27T05:34:29.727Z,-2.80
2023-02-27T05:37:02.177Z,-2.80
2023-02-27T05:39:36.110Z,-2.80
2023-02-27T05:42:14.297Z,-2.80
2023-02-27T05:44:46.519Z,-2.90
2023-02-27T05:47:19.074Z,-2.90
2023-02-27T05:50:11.457Z,-2.90
2023-02-27T05:52:43.755Z,-2.90
2023-02-27T05:58:37.468Z,-2.90
2023-02-27T06:01:11.616Z,-2.90
2023-02-27T06:03:42.500Z,-2.90
2023-02-27T06:06:17.782Z,-2.90
2023-02-27T06:08:47.616Z,-2.90
2023-02-27T06:11:17.871Z,-2.90
2023-02-27T06:13:47.264Z,-2.90
2023-02-27T06:16:18.595Z,-2.90
2023-02-27T06:18:48.133Z,-2.90
2023-02-27T06:21:18.205Z,-2.90
2023-02-27T06:23:46.879Z,-2.80
2023-02-27T06:26:17.688Z,-2.90
2023-02-27T06:28:47.023Z,-2.80
2023-02-27T06:31:16.615Z,-2.80
2023-02-27T06:33:45.978Z,-2.80
2023-02-27T06:36:15.442Z,-2.80
2023-02-27T06:38:45.080Z,-2.80
2023-02-27T06:41:14.499Z,-2.70
2023-02-27T06:43:43.953Z,-2.70
2023-02-27T06:46:13.561Z,-2.70
2023-02-27T06:48:42.910Z,-2.70
2023-02-27T06:51:12.429Z,-2.60
2023-02-27T06:53:42.699Z,-2.60
2023-02-27T06:56:12.211Z,-2.60
2023-02-27T06:58:41.499Z,-2.60
2023-02-27T07:01:11.396Z,-2.50
2023-02-27T07:03:40.851Z,-2.50
2023-02-27T07:06:10.758Z,-2.50
2023-02-27T07:09:01.798Z,-2.50
2023-02-27T07:11:11.117Z,-2.40
2023-02-27T07:13:40.452Z,-2.40
2023-02-27T07:16:09.973Z,-2.40
2023-02-27T07:18:42.142Z,-2.30
2023-02-27T07:21:11.571Z,-2.30
2023-02-27T07:23:40.937Z,-2.30
2023-02-27T07:26:10.383Z,-2.20
2023-02-27T07:28:39.894Z,-2.20
2023-02-27T07:31:09.410Z,-2.20
2023-02-27T07:33:38.874Z,-2.10
2023-02-27T07:36:08.606Z,-2.10
2023-02-27T07:38:37.956Z,-2.00
2023-02-27T07:41:07.416Z,-2.00
2023-02-27T07:43:36.862Z,-2.00
2023-02-27T07:46:06.535Z,-1.90
2023-02-27T07:48:35.922Z,-1.90
2023-02-27T07:51:05.467Z,-1.90
2023-02-27T07:53:34.854Z,-1.80
2023-02-27T07:56:04.321Z,-1.80
2023-02-27T07:58:33.735Z,-1.70
2023-02-27T08:01:03.180Z,-1.70
2023-02-27T08:03:33.038Z,-1.60
2023-02-27T08:06:02.676Z,-1.60
2023-02-27T08:08:32.194Z,-1.50
2023-02-27T08:11:01.585Z,-1.50
2023-02-27T08:13:58.910Z,-1.40
2023-02-27T08:16:02.217Z,-1.40
2023-02-27T08:18:32.962Z,-1.30
2023-02-27T08:21:04.349Z,-1.20
2023-02-27T08:23:34.615Z,-1.20
2023-02-27T08:26:04.377Z,-1.10
2023-02-27T08:28:33.909Z,-0.90
2023-02-27T08:31:03.412Z,-0.90
2023-02-27T08:33:33.404Z,-0.80
2023-02-27T08:36:02.942Z,-0.60
2023-02-27T08:38:32.485Z,-0.20
2023-02-27T08:41:01.879Z,0.00
2023-02-27T08:43:31.369Z,0.60
2023-02-27T08:46:00.783Z,1.50
2023-02-27T08:48:30.167Z,2.30
2023-02-27T08:50:59.571Z,3.10
2023-02-27T08:53:29.853Z,3.90
2023-02-27T08:55:58.479Z,4.70
2023-02-27T08:58:28.518Z,5.30
2023-02-27T09:00:57.963Z,6.00
2023-02-27T09:03:28.625Z,6.60
2023-02-27T09:05:58.341Z,7.20
2023-02-27T09:08:27.998Z,7.80
2023-02-27T09:10:58.110Z,8.30
2023-02-27T09:13:28.425Z,8.60
2023-02-27T09:15:57.207Z,9.10
2023-02-27T09:18:26.559Z,9.40
2023-02-27T09:20:56.381Z,9.60
2023-02-27T09:23:25.755Z,9.70
2023-02-27T09:25:55.077Z,9.90
2023-02-27T09:28:24.539Z,10.10
2023-02-27T09:30:54.039Z,10.30
2023-02-27T09:33:24.836Z,10.30
2023-02-27T09:35:54.172Z,10.00
2023-02-27T09:38:23.645Z,9.90
2023-02-27T09:40:55.859Z,10.20
2023-02-27T09:43:28.643Z,10.30
2023-02-27T09:46:00.011Z,10.50
2023-02-27T09:48:41.486Z,10.70
2023-02-27T09:51:10.946Z,10.60
2023-02-27T09:53:43.052Z,10.80
2023-02-27T09:56:30.556Z,10.80
2023-02-27T09:59:14.874Z,10.90
2023-02-27T10:01:59.203Z,11.00
2023-02-27T10:04:36.824Z,10.90
2023-02-27T10:07:28.851Z,10.60
2023-02-27T10:10:04.782Z,10.60
2023-02-27T10:12:49.119Z,9.70
2023-02-27T10:15:36.140Z,9.60
2023-02-27T10:18:28.183Z,9.20
2023-02-27T10:20:54.640Z,9.00
2023-02-27T10:23:49.853Z,9.30
2023-02-27T10:26:22.421Z,9.60
2023-02-27T10:28:51.923Z,9.80
2023-02-27T10:31:27.675Z,10.00
2023-02-27T10:33:59.355Z,9.80
2023-02-27T10:36:34.502Z,9.80
2023-02-27T10:39:05.385Z,9.90
2023-02-27T10:41:37.099Z,9.70
2023-02-27T10:44:07.564Z,9.60
2023-02-27T10:46:41.192Z,9.00
2023-02-27T10:49:19.400Z,8.90
2023-02-27T10:51:52.232Z,8.10
2023-02-27T10:54:24.142Z,8.10
2023-02-27T10:56:58.936Z,7.80
2023-02-27T10:59:30.717Z,7.50
2023-02-27T11:02:08.540Z,7.40
2023-02-27T11:04:43.535Z,7.50
2023-02-27T11:07:16.386Z,7.30
2023-02-27T11:09:48.835Z,7.20
2023-02-27T11:12:26.908Z,7.20
2023-02-27T11:14:59.091Z,7.10
2023-02-27T11:17:32.196Z,6.90
2023-02-27T11:20:07.614Z,6.80
2023-02-27T11:22:37.159Z,6.80
2023-02-27T11:25:24.423Z,6.70
2023-02-27T11:27:55.307Z,6.60
2023-02-27T11:30:31.474Z,6.50
2023-02-27T11:33:02.871Z,6.30
2023-02-27T11:35:38.011Z,6.20
2023-02-27T11:38:10.504Z,6.10
2023-02-27T11:40:42.965Z,6.10
2023-02-27T11:43:24.690Z,6.00
2023-02-27T11:46:21.486Z,6.10
2023-02-27T11:48:39.721Z,6.00
2023-02-27T11:51:24.008Z,5.90
2023-02-27T11:54:02.343Z,5.90
2023-02-27T11:56:36.173Z,5.80
2023-02-27T11:59:14.597Z,5.70
2023-02-27T12:01:55.706Z,5.70
2023-02-27T12:04:31.039Z,5.70
2023-02-27T12:07:09.309Z,5.60
2023-02-27T12:09:53.618Z,5.60
2023-02-27T12:12:29.284Z,5.70
2023-02-27T12:15:01.894Z,5.60
2023-02-27T12:17:40.562Z,5.50
2023-02-27T12:20:29.543Z,5.40
2023-02-27T12:22:59.218Z,5.30
2023-02-27T12:25:40.151Z,5.20
2023-02-27T12:28:18.270Z,5.20
2023-02-27T12:31:23.984Z,5.20
2023-02-27T12:34:14.285Z,5.20
2023-02-27T12:36:43.841Z,5.20
2023-02-27T12:39:21.718Z,5.20
2023-02-27T12:42:13.920Z,5.20
2023-02-27T12:45:10.459Z,5.30
2023-02-27T12:47:59.816Z,5.20
2023-02-27T12:50:32.173Z,5.20
2023-02-27T12:53:37.976Z,5.20
2023-02-27T12:56:16.964Z,5.20
2023-02-27T12:58:56.026Z,5.20
2023-02-27T13:01:45.803Z,5.10
2023-02-27T13:04:43.746Z,5.10
2023-02-27T13:07:16.121Z,5.10
2023-02-27T13:09:59.031Z,5.00
2023-02-27T13:12:39.876Z,5.00
2023-02-27T13:15:30.271Z,5.00
2023-02-27T13:18:00.396Z,5.00
2023-02-27T13:20:39.259Z,5.00
2023-02-27T13:23:44.415Z,5.00
2023-02-27T13:26:19.349Z,5.00
2023-02-27T13:28:49.358Z,5.10
2023-02-27T13:31:37.008Z,5.10
2023-02-27T13:34:27.623Z,5.10
2023-02-27T13:37:00.114Z,5.20
2023-02-27T13:39:52.565Z,5.30
2023-02-27T13:42:32.387Z,5.30
2023-02-27T13:45:04.172Z,5.30
2023-02-27T13:47:49.951Z,5.30
2023-02-27T13:50:22.433Z,5.30
2023-02-27T13:52:52.800Z,5.30
2023-02-27T13:55:28.905Z,5.30
2023-02-27T13:58:02.951Z,5.20
2023-02-27T14:00:35.399Z,5.20
2023-02-27T14:03:23.976Z,5.20
2023-02-27T14:05:55.688Z,5.20
2023-02-27T14:08:28.243Z,5.10
2023-02-27T14:11:18.842Z,5.10
2023-02-27T14:13:52.070Z,5.10
2023-02-27T14:16:44.092Z,5.00
2023-02-27T14:19:25.316Z,5.00
2023-02-27T14:21:57.349Z,5.00
2023-02-27T14:24:49.630Z,5.00
2023-02-27T14:27:29.614Z,5.00
2023-02-27T14:30:02.150Z,5.00
2023-02-27T14:32:36.781Z,5.00
2023-02-27T14:35:07.544Z,5.00
2023-02-27T14:37:37.592Z,5.00
2023-02-27T14:40:07.437Z,5.10
2023-02-27T14:42:39.850Z,5.10
2023-02-27T14:45:24.536Z,5.20
2023-02-27T14:47:57.156Z,5.20
2023-02-27T14:50:43.629Z,5.30
2023-02-27T14:53:16.666Z,5.20
2023-02-27T14:55:49.032Z,5.20
2023-02-27T14:58:21.797Z,5.10
2023-02-27T15:01:04.805Z,5.10
2023-02-27T15:03:40.184Z,5.10
2023-02-27T15:06:21.285Z,5.10
2023-02-27T15:08:57.200Z,5.10
2023-02-27T15:11:27.475Z,5.10
2023-02-27T15:14:00.165Z,5.10
2023-02-27T15:16:40.669Z,5.00
2023-02-27T15:19:13.492Z,5.10
2023-02-27T15:21:45.970Z,5.10
2023-02-27T15:24:28.605Z,5.10
2023-02-27T15:27:03.991Z,5.10
2023-02-27T15:29:45.246Z,5.00
2023-02-27T15:32:20.452Z,5.00
2023-02-27T15:34:50.069Z,4.90
2023-02-27T15:37:22.808Z,4.80
2023-02-27T15:39:53.587Z,4.70
2023-02-27T15:42:28.761Z,4.60
2023-02-27T15:44:58.966Z,4.50
2023-02-27T15:47:31.404Z,4.50
2023-02-27T15:50:28.206Z,4.50
2023-02-27T15:53:06.138Z,4.40
2023-02-27T15:55:41.444Z,4.30
2023-02-27T15:58:26.078Z,4.30
2023-02-27T16:01:21.416Z,4.30
2023-02-27T16:03:53.493Z,4.20
2023-02-27T16:06:32.415Z,4.20
2023-02-27T16:09:10.926Z,4.10
2023-02-27T16:11:40.422Z,4.10
2023-02-27T16:14:29.289Z,4.00
2023-02-27T16:16:58.749Z,4.00
2023-02-27T16:19:31.462Z,3.90
2023-02-27T16:22:06.700Z,3.80
2023-02-27T16:24:36.638Z,3.80
2023-02-27T16:27:06.401Z,3.70
2023-02-27T16:29:38.655Z,3.60
2023-02-27T16:32:09.668Z,3.60
2023-02-27T16:34:45.814Z,3.50
2023-02-27T16:37:23.333Z,3.50
2023-02-27T16:39:54.344Z,3.40
2023-02-27T16:42:23.961Z,3.40
2023-02-27T16:44:53.752Z,3.40
2023-02-27T16:47:23.226Z,3.30
2023-02-27T16:49:52.610Z,3.20
2023-02-27T16:52:22.697Z,3.20
2023-02-27T16:54:52.548Z,3.10
2023-02-27T16:57:23.615Z,3.10
2023-02-27T16:59:53.062Z,3.00
2023-02-27T17:02:22.440Z,3.00
2023-02-27T17:04:52.199Z,2.90
2023-02-27T17:07:21.695Z,2.90
2023-02-27T17:09:51.256Z,2.90
2023-02-27T17:12:21.033Z,2.80
2023-02-27T17:14:50.514Z,2.80
2023-02-27T17:17:20.496Z,2.70
2023-02-27T17:19:49.945Z,2.70
2023-02-27T17:22:19.365Z,2.60
2023-02-27T17:24:48.659Z,2.50
2023-02-27T17:27:18.109Z,2.50
2023-02-27T17:29:47.421Z,2.40
2023-02-27T17:32:17.102Z,2.40
2023-02-27T17:34:46.629Z,2.30
2023-02-27T17:37:16.503Z,2.30
2023-02-27T17:39:46.112Z,2.20
2023-02-27T17:42:17.723Z,2.20
2023-02-27T17:44:47.555Z,2.10
2023-02-27T17:47:17.876Z,2.00
2023-02-27T17:49:46.705Z,1.90
2023-02-27T17:52:16.119Z,1.90
2023-02-27T17:54:45.556Z,1.80
2023-02-27T17:57:14.878Z,1.80
2023-02-27T17:59:44.272Z,1.70
2023-02-27T18:02:14.823Z,1.60
2023-02-27T18:04:44.390Z,1.60
2023-02-27T18:07:13.781Z,1.50
2023-02-27T18:09:44.931Z,1.50
2023-02-27T18:12:14.278Z,1.40
2023-02-27T18:14:43.644Z,1.40
2023-02-27T18:17:13.065Z,1.30
2023-02-27T18:19:43.346Z,1.30
2023-02-27T18:22:13.824Z,1.20
2023-02-27T18:24:42.370Z,1.20
2023-02-27T18:27:11.758Z,1.10
2023-02-27T18:29:42.097Z,1.00
2023-02-27T18:32:10.945Z,1.00
2023-02-27T18:34:41.363Z,1.00
2023-02-27T18:37:10.949Z,0.90
2023-02-27T18:39:42.086Z,0.90
2023-02-27T18:42:11.497Z,0.80
2023-02-27T18:44:41.365Z,0.80
2023-02-27T18:47:12.003Z,0.80
2023-02-27T18:49:41.490Z,0.80
2023-02-27T18:52:10.985Z,0.70
2023-02-27T18:54:42.238Z,0.70
2023-02-27T18:57:11.683Z,0.60
2023-02-27T18:59:41.808Z,0.20
2023-02-27T19:02:16.762Z,-0.10
2023-02-27T19:04:47.833Z,-0.40
2023-02-27T19:07:18.023Z,-0.70
2023-02-27T19:09:46.578Z,-0.90
2023-02-27T19:12:15.928Z,-1.10
2023-02-27T19:14:45.294Z,-1.20
2023-02-27T19:17:14.678Z,-1.40
2023-02-27T19:19:44.447Z,-1.40
2023-02-27T19:22:13.887Z,-1.50
2023-02-27T19:24:44.366Z,-1.60
2023-02-27T19:27:16.052Z,-1.70
2023-02-27T19:29:45.432Z,-1.80
2023-02-27T19:32:14.969Z,-1.80
2023-02-27T19:34:44.323Z,-1.70
2023-02-27T19:37:15.340Z,-1.70
2023-02-27T19:39:44.796Z,-1.80
2023-02-27T19:42:15.154Z,-1.90
2023-02-27T19:44:44.911Z,-2.00
2023-02-27T19:47:14.309Z,-2.00
2023-02-27T19:49:43.694Z,-2.10
2023-02-27T19:52:13.157Z,-2.10
2023-02-27T19:54:42.573Z,-2.20
2023-02-27T19:57:12.267Z,-2.20
2023-02-27T19:59:41.899Z,-2.20
2023-02-27T20:02:12.694Z,-2.20
2023-02-27T20:04:42.245Z,-2.30
2023-02-27T20:07:11.883Z,-2.40
2023-02-27T20:09:41.468Z,-2.40
2023-02-27T20:12:10.916Z,-2.40
2023-02-27T20:14:41.034Z,-2.30
2023-02-27T20:17:09.643Z,-2.30
2023-02-27T20:19:39.799Z,-2.10
2023-02-27T20:22:09.203Z,-2.00
2023-02-27T20:24:38.697Z,-2.10
2023-02-27T20:27:08.070Z,-2.20
2023-02-27T20:29:37.441Z,-2.30
2023-02-27T20:32:07.086Z,-2.40
2023-02-27T20:34:36.458Z,-2.40
2023-02-27T20:37:05.902Z,-2.50
2023-02-27T20:39:35.263Z,-2.60
2023-02-27T20:42:05.785Z,-2.60
2023-02-27T20:44:35.281Z,-2.60
2023-02-27T20:47:05.080Z,-2.70
2023-02-27T20:49:34.452Z,-2.70
2023-02-27T20:52:03.839Z,-2.60
2023-02-27T20:54:33.586Z,-2.70
2023-02-27T20:57:02.984Z,-2.70
2023-02-27T20:59:32.609Z,-2.80
2023-02-27T21:02:03.587Z,-2.80
2023-02-27T21:04:46.766Z,-2.70
2023-02-27T21:07:21.260Z,-2.80
2023-02-27T21:09:52.202Z,-2.90
2023-02-27T21:12:21.516Z,-2.90
2023-02-27T21:14:50.952Z,-3.00
2023-02-27T21:17:20.266Z,-3.00
2023-02-27T21:19:49.731Z,-3.00
2023-02-27T21:22:19.422Z,-3.10
2023-02-27T21:24:50.445Z,-3.00
2023-02-27T21:27:21.773Z,-3.10
2023-02-27T21:29:51.661Z,-3.20
2023-02-27T21:32:21.169Z,-3.20
2023-02-27T21:34:50.541Z,-3.20
2023-02-27T21:37:20.079Z,-3.20
2023-02-27T21:39:51.928Z,-3.20
2023-02-27T21:42:22.126Z,-3.30
2023-02-27T21:44:51.503Z,-3.30
2023-02-27T21:47:21.272Z,-3.30
2023-02-27T21:49:52.573Z,-3.30
2023-02-27T21:52:21.905Z,-3.30
2023-02-27T21:54:52.556Z,-3.20
2023-02-27T21:57:35.969Z,-3.20
2023-02-27T22:00:08.161Z,-3.20
2023-02-27T22:02:38.813Z,-3.30
2023-02-27T22:05:08.809Z,-3.30
2023-02-27T22:07:38.247Z,-3.40
2023-02-27T22:10:08.153Z,-3.30
2023-02-27T22:12:37.626Z,-3.30
2023-02-27T22:15:07.459Z,-3.40
2023-02-27T22:17:36.964Z,-3.50
2023-02-27T22:20:07.166Z,-3.50
2023-02-27T22:22:35.914Z,-3.50
2023-02-27T22:25:05.411Z,-3.50
2023-02-27T22:27:34.944Z,-3.60
2023-02-27T22:30:04.586Z,-3.60
2023-02-27T22:32:33.968Z,-3.60
2023-02-27T22:35:03.357Z,-3.60
2023-02-27T22:37:32.831Z,-3.60
2023-02-27T22:40:02.224Z,-3.60
2023-02-27T22:42:31.563Z,-3.60
2023-02-27T22:45:00.992Z,-3.60
2023-02-27T22:47:30.399Z,-3.60
2023-02-27T22:49:59.721Z,-3.70
2023-02-27T22:52:29.125Z,-3.70
2023-02-27T22:54:58.523Z,-3.80
2023-02-27T22:57:28.016Z,-3.80
2023-02-27T22:59:57.402Z,-3.90
2023-02-27T23:02:30.100Z,-3.90
2023-02-27T23:04:59.683Z,-3.90
2023-02-27T23:07:29.069Z,-3.90
2023-02-27T23:09:58.426Z,-4.00
2023-02-27T23:12:27.785Z,-3.90
2023-02-27T23:14:57.248Z,-3.90
2023-02-27T23:17:26.655Z,-3.90
2023-02-27T23:19:55.993Z,-3.90
2023-02-27T23:22:25.497Z,-3.90
2023-02-27T23:24:56.228Z,-4.00
2023-02-27T23:27:26.570Z,-4.00
2023-02-27T23:29:56.012Z,-3.90
2023-02-27T23:32:25.528Z,-4.00
2023-02-27T23:34:54.924Z,-4.10
2023-02-27T23:37:24.243Z,-4.10
2023-02-27T23:39:53.686Z,-4.10
2023-02-27T23:42:40.811Z,-4.20
2023-02-27T23:45:26.248Z,-4.20
2023-02-27T23:47:57.728Z,-4.20
2023-02-27T23:50:30.493Z,-4.10
2023-02-27T23:53:01.206Z,-4.10
2023-02-27T23:55:32.428Z,-4.20
2023-02-27T23:58:04.045Z,-4.30
